createdAt,value
2018-05-06T00:02:02.804Z,40.70
2018-05-06T00:04:30.402Z,42.10
2018-05-06T00:06:58.032Z,41.80
2018-05-06T00:09:25.749Z,41.10
2018-05-06T00:11:53.387Z,43.30
2018-05-06T00:14:21.020Z,43.00
2018-05-06T00:16:48.631Z,41.90
2018-05-06T00:19:16.267Z,43.30
2018-05-06T00:21:43.861Z,42.40
2018-05-06T00:24:11.507Z,42.80
2018-05-06T00:26:39.159Z,43.80
2018-05-06T00:29:06.795Z,43.20
2018-05-06T00:31:34.393Z,42.80
2018-05-06T00:34:02.017Z,41.70
2018-05-06T00:36:30.388Z,40.90
2018-05-06T00:38:58.008Z,40.90
2018-05-06T00:41:25.603Z,40.70
2018-05-06T00:43:53.235Z,41.00
2018-05-06T00:46:21.639Z,40.60
2018-05-06T00:48:49.263Z,40.60
2018-05-06T00:51:16.854Z,41.40
2018-05-06T00:53:45.267Z,41.40
2018-05-06T00:56:12.871Z,41.30
2018-05-06T00:58:40.504Z,41.90
2018-05-06T01:01:08.871Z,42.30
2018-05-06T01:03:36.598Z,42.40
2018-05-06T01:06:04.394Z,43.00
2018-05-06T01:08:32.033Z,42.20
2018-05-06T01:10:59.720Z,42.20
2018-05-06T01:13:27.367Z,42.20
2018-05-06T01:15:55.725Z,42.20
2018-05-06T01:18:23.462Z,42.20
2018-05-06T01:20:51.059Z,42.20
2018-05-06T01:23:18.659Z,42.50
2018-05-06T01:25:46.295Z,42.60
2018-05-06T01:28:13.903Z,42.50
2018-05-06T01:30:41.531Z,43.20
2018-05-06T01:33:09.131Z,43.00
2018-05-06T01:35:36.791Z,43.30
2018-05-06T01:38:04.395Z,43.20
2018-05-06T01:40:32.825Z,43.80
2018-05-06T01:43:00.506Z,43.20
2018-05-06T01:45:28.131Z,43.40
2018-05-06T01:47:56.515Z,43.60
2018-05-06T01:50:24.149Z,42.90
2018-05-06T01:52:51.743Z,43.10
2018-05-06T01:55:19.612Z,43.20
2018-05-06T01:57:47.211Z,43.40
2018-05-06T02:00:14.941Z,43.80
2018-05-06T02:02:42.537Z,43.70
2018-05-06T02:05:10.189Z,44.20
2018-05-06T02:07:37.784Z,44.10
2018-05-06T02:10:05.421Z,43.80
2018-05-06T02:12:33.044Z,43.80
2018-05-06T02:15:00.716Z,43.90
2018-05-06T02:17:28.306Z,44.20
2018-05-06T02:19:56.719Z,44.80
2018-05-06T02:22:24.406Z,44.30
2018-05-06T02:24:51.995Z,45.00
2018-05-06T02:27:19.627Z,44.40
2018-05-06T02:29:47.224Z,44.30
2018-05-06T02:32:14.917Z,44.60
2018-05-06T02:34:42.516Z,44.80
2018-05-06T02:37:11.672Z,45.00
2018-05-06T02:39:39.267Z,45.00
2018-05-06T02:42:06.900Z,45.20
2018-05-06T02:44:35.275Z,45.10
2018-05-06T02:47:03.815Z,45.40
2018-05-06T02:49:31.447Z,45.40
2018-05-06T02:51:59.091Z,45.40
2018-05-06T02:54:26.681Z,45.80
2018-05-06T02:56:54.407Z,47.10
2018-05-06T02:59:21.998Z,46.80
2018-05-06T03:01:49.636Z,46.40
2018-05-06T03:04:17.227Z,45.90
2018-05-06T03:06:44.852Z,45.30
2018-05-06T03:09:13.281Z,47.80
2018-05-06T03:11:40.976Z,47.80
2018-05-06T03:14:08.587Z,46.90
2018-05-06T03:16:37.008Z,46.40
2018-05-06T03:19:04.617Z,46.30
2018-05-06T03:21:32.286Z,46.20
2018-05-06T03:23:59.878Z,46.80
2018-05-06T03:26:27.495Z,46.80
2018-05-06T03:28:55.100Z,47.60
2018-05-06T03:31:22.735Z,47.30
2018-05-06T03:33:50.339Z,46.20
2018-05-06T03:36:17.971Z,48.00
2018-05-06T03:38:46.348Z,47.40
2018-05-06T03:41:14.728Z,48.30
2018-05-06T03:43:42.371Z,48.30
2018-05-06T03:46:09.977Z,48.80
2018-05-06T03:48:38.371Z,48.50
2018-05-06T03:51:06.734Z,48.90
2018-05-06T03:53:34.367Z,48.20
2018-05-06T03:59:26.559Z,48.70
2018-05-06T04:05:07.727Z,48.30
2018-05-06T04:07:35.359Z,47.70
2018-05-06T04:10:03.030Z,47.30
2018-05-06T04:12:30.669Z,47.00
2018-05-06T04:14:59.094Z,48.60
2018-05-06T04:17:26.772Z,48.60
2018-05-06T04:19:54.429Z,48.10
2018-05-06T04:22:22.039Z,48.70
2018-05-06T04:24:49.676Z,50.40
2018-05-06T04:27:17.284Z,49.40
2018-05-06T04:29:44.937Z,50.00
2018-05-06T04:32:12.605Z,51.70
2018-05-06T04:34:40.279Z,50.10
2018-05-06T04:37:07.871Z,50.40
2018-05-06T04:39:35.499Z,49.90
2018-05-06T04:42:03.868Z,49.70
2018-05-06T04:44:31.496Z,49.80
2018-05-06T04:46:59.166Z,50.50
2018-05-06T04:49:26.803Z,51.90
2018-05-06T04:51:55.196Z,47.90
2018-05-06T04:54:22.842Z,47.80
2018-05-06T04:56:50.444Z,45.30
2018-05-06T04:59:18.861Z,41.30
2018-05-06T05:01:46.455Z,41.30
2018-05-06T05:04:14.070Z,40.90
2018-05-06T05:06:41.710Z,39.00
2018-05-06T05:09:09.344Z,37.90
2018-05-06T05:11:36.939Z,37.30
2018-05-06T05:14:04.535Z,36.80
2018-05-06T05:16:32.168Z,37.20
2018-05-06T05:18:59.771Z,37.20
2018-05-06T05:21:27.415Z,36.10
2018-05-06T05:23:55.027Z,35.60
2018-05-06T05:26:22.678Z,35.70
2018-05-06T05:28:50.310Z,35.40
2018-05-06T05:31:17.938Z,34.70
2018-05-06T05:33:45.535Z,34.70
2018-05-06T05:36:13.926Z,34.40
2018-05-06T05:38:42.287Z,36.00
2018-05-06T05:41:09.932Z,36.00
2018-05-06T05:43:37.543Z,35.60
2018-05-06T05:46:05.171Z,36.10
2018-05-06T05:48:32.767Z,37.30
2018-05-06T05:51:00.391Z,36.50
2018-05-06T05:53:27.992Z,41.70
2018-05-06T05:55:55.615Z,37.90
2018-05-06T05:58:23.227Z,40.40
2018-05-06T06:00:50.872Z,40.50
2018-05-06T06:03:19.300Z,38.00
2018-05-06T06:05:46.974Z,38.00
2018-05-06T06:08:14.679Z,40.00
2018-05-06T06:10:42.315Z,37.20
2018-05-06T06:13:09.919Z,36.20
2018-05-06T06:15:37.568Z,36.40
2018-05-06T06:18:05.189Z,37.00
2018-05-06T06:20:32.831Z,35.70
2018-05-06T06:23:00.419Z,36.10
2018-05-06T06:25:28.015Z,36.50
2018-05-06T06:27:55.658Z,36.90
2018-05-06T06:30:23.259Z,36.10
2018-05-06T06:32:51.678Z,37.80
2018-05-06T06:35:19.382Z,37.20
2018-05-06T06:37:46.965Z,37.90
2018-05-06T06:40:14.555Z,39.00
2018-05-06T06:42:42.189Z,39.20
2018-05-06T06:45:09.796Z,36.90
2018-05-06T06:47:37.437Z,35.50
2018-05-06T06:50:05.036Z,35.00
2018-05-06T06:52:32.671Z,35.00
2018-05-06T06:55:00.283Z,35.60
2018-05-06T06:57:27.917Z,33.00
2018-05-06T06:59:55.524Z,31.20
2018-05-06T07:02:23.163Z,29.60
2018-05-06T07:04:50.775Z,30.90
2018-05-06T07:07:18.463Z,33.00
2018-05-06T07:09:47.587Z,36.10
2018-05-06T07:12:16.012Z,29.80
2018-05-06T07:14:43.682Z,29.80
2018-05-06T07:17:11.283Z,32.30
2018-05-06T07:19:38.911Z,28.40
2018-05-06T07:22:06.523Z,30.10
2018-05-06T07:24:34.146Z,29.90
2018-05-06T07:27:01.747Z,28.90
2018-05-06T07:29:29.382Z,29.40
2018-05-06T07:31:57.006Z,31.00
2018-05-06T07:34:24.626Z,32.30
2018-05-06T07:36:53.012Z,29.50
2018-05-06T07:39:20.672Z,29.50
2018-05-06T07:41:48.271Z,31.10
2018-05-06T07:44:15.949Z,27.70
2018-05-06T07:46:43.550Z,27.80
2018-05-06T07:49:11.180Z,28.30
2018-05-06T07:51:39.543Z,28.90
2018-05-06T07:54:07.133Z,28.90
2018-05-06T07:56:35.528Z,30.60
2018-05-06T07:59:03.156Z,30.50
2018-05-06T08:01:30.781Z,28.40
2018-05-06T08:03:59.181Z,28.60
2018-05-06T08:06:26.832Z,28.60
2018-05-06T08:08:55.261Z,31.40
2018-05-06T08:11:22.952Z,31.40
2018-05-06T08:13:50.565Z,31.90
2018-05-06T08:16:18.265Z,31.20
2018-05-06T08:18:45.839Z,29.80
2018-05-06T08:21:13.483Z,28.90
2018-05-06T08:23:41.084Z,30.00
2018-05-06T08:26:08.720Z,32.20
2018-05-06T08:28:36.328Z,32.10
2018-05-06T08:31:04.039Z,29.80
2018-05-06T08:33:32.355Z,31.90
2018-05-06T08:35:59.979Z,31.80
2018-05-06T08:38:27.563Z,32.10
2018-05-06T08:40:55.187Z,31.10
2018-05-06T08:43:23.570Z,30.50
2018-05-06T08:45:52.113Z,33.00
2018-05-06T08:48:19.684Z,33.10
2018-05-06T08:50:47.322Z,33.70
2018-05-06T08:53:15.724Z,32.40
2018-05-06T08:55:43.523Z,32.50
2018-05-06T08:58:11.155Z,31.10
2018-05-06T09:00:39.517Z,32.30
2018-05-06T09:03:07.167Z,32.50
2018-05-06T09:05:34.764Z,34.00
2018-05-06T09:08:02.396Z,32.80
2018-05-06T09:10:29.992Z,32.70
2018-05-06T09:12:57.628Z,29.90
2018-05-06T09:15:25.251Z,31.90
2018-05-06T09:17:52.883Z,33.00
2018-05-06T09:20:20.481Z,31.90
2018-05-06T09:22:48.107Z,31.80
2018-05-06T09:25:16.469Z,34.10
2018-05-06T09:27:44.104Z,34.20
2018-05-06T09:30:11.780Z,35.40
2018-05-06T09:32:39.403Z,32.00
2018-05-06T09:35:06.996Z,31.70
2018-05-06T09:37:35.403Z,31.90
2018-05-06T09:40:03.013Z,31.90
2018-05-06T09:42:30.655Z,33.50
2018-05-06T09:44:58.251Z,33.30
2018-05-06T09:47:25.875Z,34.30
2018-05-06T09:49:54.235Z,31.30
2018-05-06T09:52:21.861Z,31.00
2018-05-06T09:54:49.467Z,30.50
2018-05-06T09:57:17.099Z,32.90
2018-05-06T09:59:44.695Z,31.90
2018-05-06T10:02:12.325Z,33.00
2018-05-06T10:04:40.723Z,32.30
2018-05-06T10:07:09.089Z,32.30
2018-05-06T10:09:36.725Z,32.20
2018-05-06T10:12:04.390Z,33.50
2018-05-06T10:14:32.039Z,33.80
2018-05-06T10:16:59.636Z,34.70
2018-05-06T10:19:27.272Z,33.10
2018-05-06T10:21:55.635Z,32.80
2018-05-06T10:24:23.280Z,32.90
2018-05-06T10:26:50.897Z,33.40
2018-05-06T10:29:19.301Z,34.20
2018-05-06T10:31:47.667Z,32.60
2018-05-06T10:34:15.307Z,32.30
2018-05-06T10:36:42.903Z,30.30
2018-05-06T10:39:10.539Z,28.70
2018-05-06T10:41:38.136Z,29.80
2018-05-06T10:44:05.797Z,29.50
2018-05-06T10:46:33.408Z,29.70
2018-05-06T10:49:01.119Z,28.60
2018-05-06T10:51:29.445Z,33.30
2018-05-06T10:53:57.237Z,32.80
2018-05-06T10:56:24.847Z,29.00
2018-05-06T10:58:52.443Z,29.60
2018-05-06T11:01:20.068Z,28.80
2018-05-06T11:03:48.438Z,31.90
2018-05-06T11:06:16.088Z,31.60
2018-05-06T11:08:43.712Z,30.60
2018-05-06T11:11:12.112Z,30.00
2018-05-06T11:13:40.495Z,31.60
2018-05-06T11:16:08.923Z,29.70
2018-05-06T11:18:36.555Z,29.60
2018-05-06T11:21:04.971Z,31.40
2018-05-06T11:23:32.563Z,31.20
2018-05-06T11:26:00.187Z,29.20
2018-05-06T11:28:28.563Z,31.10
2018-05-06T11:30:56.182Z,30.90
2018-05-06T11:33:23.883Z,29.70
2018-05-06T11:35:51.536Z,30.70
2018-05-06T11:38:19.143Z,29.00
2018-05-06T11:40:46.792Z,35.40
2018-05-06T11:43:14.404Z,30.40
2018-05-06T11:45:42.815Z,34.90
2018-05-06T11:48:11.291Z,28.30
2018-05-06T11:50:38.891Z,28.20
2018-05-06T11:53:06.704Z,33.90
2018-05-06T11:55:34.367Z,29.70
2018-05-06T11:58:01.980Z,30.00
2018-05-06T12:00:29.615Z,28.90
2018-05-06T12:02:57.207Z,32.40
2018-05-06T12:05:24.821Z,31.90
2018-05-06T12:07:53.227Z,28.50
2018-05-06T12:10:20.844Z,28.40
2018-05-06T12:12:48.479Z,30.90
2018-05-06T12:15:16.071Z,29.40
2018-05-06T12:17:43.752Z,28.10
2018-05-06T12:20:11.510Z,27.70
2018-05-06T12:22:39.136Z,29.60
2018-05-06T12:25:06.734Z,30.00
2018-05-06T12:27:34.377Z,27.80
2018-05-06T12:30:02.016Z,30.80
2018-05-06T12:32:29.656Z,26.60
2018-05-06T12:34:57.251Z,30.40
2018-05-06T12:37:24.883Z,27.40
2018-05-06T12:39:52.492Z,26.40
2018-05-06T12:42:20.141Z,27.30
2018-05-06T12:44:47.787Z,26.20
2018-05-06T12:47:15.442Z,29.30
2018-05-06T12:49:43.197Z,28.90
2018-05-06T12:52:10.864Z,27.20
2018-05-06T12:54:38.471Z,27.30
2018-05-06T12:57:06.076Z,28.60
2018-05-06T12:59:34.470Z,28.90
2018-05-06T13:02:02.886Z,26.40
2018-05-06T13:04:30.559Z,26.30
2018-05-06T13:06:58.160Z,28.70
2018-05-06T13:09:25.791Z,28.00
2018-05-06T13:11:53.411Z,27.80
2018-05-06T13:14:21.054Z,27.40
2018-05-06T13:16:48.675Z,28.50
2018-05-06T13:19:16.307Z,32.70
2018-05-06T13:21:43.909Z,27.60
2018-05-06T13:24:11.544Z,28.30
2018-05-06T13:26:39.174Z,27.30
2018-05-06T13:29:07.577Z,28.20
2018-05-06T13:31:35.195Z,28.10
2018-05-06T13:34:02.824Z,27.60
2018-05-06T13:36:30.439Z,27.20
2018-05-06T13:38:58.088Z,26.10
2018-05-06T13:41:25.773Z,26.70
2018-05-06T13:43:53.495Z,26.90
2018-05-06T13:46:21.152Z,26.80
2018-05-06T13:48:48.755Z,26.50
2018-05-06T13:51:17.154Z,26.90
2018-05-06T13:53:45.527Z,27.10
2018-05-06T13:56:13.164Z,26.90
2018-05-06T13:58:40.764Z,26.70
2018-05-06T14:01:08.392Z,27.30
2018-05-06T14:03:35.993Z,25.90
2018-05-06T14:06:03.652Z,26.30
2018-05-06T14:08:31.275Z,27.10
2018-05-06T14:10:59.699Z,26.80
2018-05-06T14:13:27.294Z,26.80
2018-05-06T14:15:55.043Z,26.90
2018-05-06T14:18:22.586Z,26.80
2018-05-06T14:20:50.987Z,27.70
2018-05-06T14:23:18.599Z,27.70
2018-05-06T14:25:46.359Z,26.90
2018-05-06T14:28:13.967Z,27.00
2018-05-06T14:30:41.623Z,27.10
2018-05-06T14:33:09.380Z,26.40
2018-05-06T14:35:37.256Z,26.80
2018-05-06T14:38:04.931Z,27.50
2018-05-06T14:40:32.528Z,27.70
2018-05-06T14:43:00.159Z,27.00
2018-05-06T14:45:27.759Z,27.30
2018-05-06T14:48:07.539Z,27.10
2018-05-06T14:50:35.151Z,27.10
2018-05-06T14:53:02.780Z,27.40
2018-05-06T14:55:30.375Z,27.20
2018-05-06T14:57:58.099Z,28.20
2018-05-06T15:00:25.691Z,28.30
2018-05-06T15:02:53.331Z,27.80
2018-05-06T15:05:20.928Z,27.00
2018-05-06T15:07:48.563Z,27.50
2018-05-06T15:10:16.982Z,28.50
2018-05-06T15:12:44.600Z,28.50
2018-05-06T15:15:12.191Z,28.40
2018-05-06T15:17:40.596Z,27.70
2018-05-06T15:20:08.222Z,27.70
2018-05-06T15:22:35.828Z,28.00
2018-05-06T15:25:04.243Z,28.50
2018-05-06T15:27:31.845Z,28.50
2018-05-06T15:29:59.476Z,28.60
2018-05-06T15:32:27.092Z,28.10
2018-05-06T15:34:54.719Z,28.70
2018-05-06T15:37:22.342Z,28.10
2018-05-06T15:39:49.993Z,27.60
2018-05-06T15:42:17.671Z,28.00
2018-05-06T15:44:45.295Z,28.30
2018-05-06T15:47:13.660Z,28.10
2018-05-06T15:49:41.494Z,28.10
2018-05-06T15:52:09.172Z,27.30
2018-05-06T15:54:36.795Z,27.10
2018-05-06T15:57:04.396Z,28.00
2018-05-06T15:59:32.034Z,27.90
2018-05-06T16:02:06.535Z,27.90
2018-05-06T16:04:34.201Z,28.70
2018-05-06T16:07:01.797Z,28.70
2018-05-06T16:09:29.435Z,28.80
2018-05-06T16:11:57.086Z,28.90
2018-05-06T16:14:25.476Z,29.20
2018-05-06T16:16:53.842Z,29.00
2018-05-06T16:19:21.476Z,29.00
2018-05-06T16:21:49.079Z,29.00
2018-05-06T16:24:16.944Z,28.30
2018-05-06T16:26:44.645Z,28.80
2018-05-06T16:29:12.216Z,28.20
2018-05-06T16:31:39.841Z,28.50
2018-05-06T16:34:07.448Z,30.00
2018-05-06T16:36:35.110Z,30.00
2018-05-06T16:39:02.712Z,29.50
2018-05-06T16:41:30.413Z,29.70
2018-05-06T16:43:57.975Z,29.20
2018-05-06T16:46:25.638Z,29.90
2018-05-06T16:48:54.003Z,30.90
2018-05-06T16:51:21.639Z,30.80
2018-05-06T16:53:49.235Z,30.90
2018-05-06T16:56:16.868Z,30.50
2018-05-06T16:58:44.471Z,31.50
2018-05-06T17:01:12.096Z,32.30
2018-05-06T17:03:40.470Z,32.20
2018-05-06T17:06:08.131Z,32.00
2018-05-06T17:08:35.747Z,32.50
2018-05-06T17:11:03.395Z,32.30
2018-05-06T17:13:31.764Z,32.20
2018-05-06T17:15:59.423Z,32.60
2018-05-06T17:18:27.295Z,33.20
2018-05-06T17:20:54.896Z,33.40
2018-05-06T17:23:22.534Z,32.40
2018-05-06T17:25:50.131Z,31.80
2018-05-06T17:28:18.559Z,33.90
2018-05-06T17:30:46.979Z,32.80
2018-05-06T17:33:14.616Z,32.80
2018-05-06T17:35:42.235Z,33.70
2018-05-06T17:38:09.872Z,33.60
2018-05-06T17:40:38.233Z,32.00
2018-05-06T17:43:06.630Z,32.60
2018-05-06T17:45:34.229Z,32.60
2018-05-06T17:48:02.620Z,34.40
2018-05-06T17:50:30.980Z,33.90
2018-05-06T17:52:58.640Z,33.80
2018-05-06T17:55:26.247Z,34.60
2018-05-06T17:57:53.893Z,35.00
2018-05-06T18:00:21.512Z,34.60
2018-05-06T18:02:49.147Z,34.60
2018-05-06T18:05:17.529Z,35.30
2018-05-06T18:07:45.188Z,35.30
2018-05-06T18:10:12.904Z,35.40
2018-05-06T18:12:41.272Z,35.00
2018-05-06T18:15:08.901Z,35.00
2018-05-06T18:17:36.677Z,36.00
2018-05-06T18:20:04.320Z,35.30
2018-05-06T18:22:32.736Z,34.80
2018-05-06T18:25:00.428Z,34.70
2018-05-06T18:27:28.089Z,36.20
2018-05-06T18:29:55.763Z,35.30
2018-05-06T18:32:23.363Z,35.60
2018-05-06T18:34:51.011Z,37.30
2018-05-06T18:37:18.625Z,35.90
2018-05-06T18:39:46.274Z,35.80
2018-05-06T18:42:26.853Z,35.60
2018-05-06T18:44:54.539Z,36.20
2018-05-06T18:47:22.155Z,37.00
2018-05-06T18:49:50.551Z,35.40
2018-05-06T18:52:18.914Z,35.90
2018-05-06T18:54:46.542Z,35.80
2018-05-06T18:57:14.165Z,37.30
2018-05-06T18:59:41.803Z,36.20
2018-05-06T19:02:09.415Z,36.40
2018-05-06T19:04:37.377Z,36.80
2018-05-06T19:07:05.234Z,36.20
2018-05-06T19:09:33.340Z,36.10
2018-05-06T19:12:00.956Z,35.90
2018-05-06T19:14:29.347Z,35.70
2018-05-06T19:16:57.763Z,36.50
2018-05-06T19:19:25.396Z,36.40
2018-05-06T19:21:53.009Z,37.50
2018-05-06T19:24:21.507Z,37.10
2018-05-06T19:26:50.145Z,37.00
2018-05-06T19:29:18.745Z,37.30
2018-05-06T19:31:46.390Z,37.30
2018-05-06T19:34:13.985Z,38.00
2018-05-06T19:36:45.663Z,38.50
2018-05-06T19:39:14.255Z,38.90
2018-05-06T19:41:43.154Z,37.60
2018-05-06T19:44:10.787Z,37.40
2018-05-06T19:46:38.464Z,38.20
2018-05-06T19:49:11.616Z,38.90
2018-05-06T19:51:39.872Z,38.50
2018-05-06T19:54:07.491Z,38.60
2018-05-06T19:56:35.164Z,39.10
2018-05-06T19:59:07.369Z,38.90
2018-05-06T20:01:35.583Z,38.90
2018-05-06T20:04:06.747Z,38.30
2018-05-06T20:06:38.130Z,38.20
2018-05-06T20:09:05.820Z,37.90
2018-05-06T20:11:35.475Z,39.00
2018-05-06T20:14:04.346Z,39.00
2018-05-06T20:16:32.255Z,39.10
2018-05-06T20:19:01.548Z,38.50
2018-05-06T20:21:29.290Z,38.50
2018-05-06T20:23:56.927Z,39.30
2018-05-06T20:26:24.578Z,39.90
2018-05-06T20:28:52.200Z,38.70
2018-05-06T20:31:20.708Z,39.30
2018-05-06T20:33:49.253Z,39.00
2018-05-06T20:36:16.919Z,39.00
2018-05-06T20:38:44.521Z,39.20
2018-05-06T20:41:12.147Z,39.00
2018-05-06T20:43:39.749Z,40.10
2018-05-06T20:46:07.549Z,40.60
2018-05-06T20:48:35.187Z,39.90
2018-05-06T20:51:03.107Z,38.80
2018-05-06T20:53:31.542Z,38.70
2018-05-06T20:55:59.460Z,38.70
2018-05-06T20:58:27.215Z,39.60
2018-05-06T21:00:54.864Z,38.80
2018-05-06T21:03:22.471Z,40.10
2018-05-06T21:05:50.105Z,40.70
2018-05-06T21:08:18.473Z,39.70
2018-05-06T21:10:46.115Z,40.40
2018-05-06T21:13:13.725Z,40.30
2018-05-06T21:15:42.152Z,42.90
2018-05-06T21:18:09.753Z,42.90
2018-05-06T21:20:37.401Z,41.40
2018-05-06T21:23:05.058Z,42.40
2018-05-06T21:25:32.813Z,41.50
2018-05-06T21:28:02.229Z,42.10
2018-05-06T21:30:29.918Z,42.10
2018-05-06T21:32:57.583Z,41.70
2018-05-06T21:35:25.194Z,42.80
2018-05-06T21:37:52.896Z,42.40
2018-05-06T21:40:20.514Z,42.10
2018-05-06T21:42:48.219Z,41.30
2018-05-06T21:45:15.820Z,41.40
2018-05-06T21:47:43.472Z,42.30
2018-05-06T21:50:11.087Z,42.20
2018-05-06T21:52:39.503Z,41.20
2018-05-06T21:55:07.192Z,41.20
2018-05-06T21:57:34.872Z,40.90
2018-05-06T22:00:02.527Z,40.70
2018-05-06T22:02:30.345Z,40.70
2018-05-06T22:04:57.992Z,41.10
2018-05-06T22:07:25.626Z,40.50
2018-05-06T22:09:53.252Z,41.90
2018-05-06T22:12:21.011Z,43.50
2018-05-06T22:14:48.607Z,43.20
2018-05-06T22:17:16.258Z,42.80
2018-05-06T22:19:43.876Z,42.80
2018-05-06T22:22:11.499Z,42.10
2018-05-06T22:24:39.139Z,43.60
2018-05-06T22:27:08.283Z,42.70
2018-05-06T22:29:36.826Z,42.70
2018-05-06T22:32:04.761Z,41.90
2018-05-06T22:34:33.500Z,42.20
2018-05-06T22:37:02.206Z,41.10
2018-05-06T22:39:30.903Z,42.20
2018-05-06T22:41:59.552Z,43.60
2018-05-06T22:44:27.183Z,43.60
2018-05-06T22:46:54.789Z,45.00
2018-05-06T22:49:22.446Z,45.20
2018-05-06T22:51:50.045Z,45.10
2018-05-06T22:54:17.693Z,44.20
2018-05-06T22:56:45.307Z,44.00
2018-05-06T22:59:12.930Z,42.80
2018-05-06T23:01:41.316Z,43.10
2018-05-06T23:04:09.742Z,42.80
2018-05-06T23:06:37.347Z,42.80
2018-05-06T23:09:05.848Z,42.60
2018-05-06T23:11:33.595Z,42.80
2018-05-06T23:14:01.269Z,42.80
2018-05-06T23:16:29.030Z,42.90
2018-05-06T23:18:56.676Z,42.80
2018-05-06T23:21:24.349Z,43.00
2018-05-06T23:23:52.798Z,43.20
2018-05-06T23:26:20.433Z,43.20
2018-05-06T23:28:48.042Z,43.30
2018-05-06T23:31:15.670Z,43.40
2018-05-06T23:33:43.284Z,43.50
2018-05-06T23:36:10.913Z,43.80
2018-05-06T23:38:38.528Z,44.00
2018-05-06T23:41:06.190Z,44.40
2018-05-06T23:43:33.799Z,44.40
2018-05-06T23:46:02.363Z,45.00
2018-05-06T23:48:29.995Z,45.00
2018-05-06T23:50:57.659Z,45.20
2018-05-06T23:53:26.034Z,44.80
2018-05-06T23:55:54.445Z,44.80
2018-05-06T23:58:22.850Z,44.90
